createdAt,value
2023-04-10T00:00:20.168Z,23.90
2023-04-10T00:02:47.221Z,30.50
2023-04-10T00:05:13.999Z,26.60
2023-04-10T00:07:40.730Z,27.30
2023-04-10T00:10:07.608Z,25.80
2023-04-10T00:12:37.685Z,26.90
2023-04-10T00:15:04.604Z,23.90
2023-04-10T00:17:31.327Z,24.00
2023-04-10T00:19:59.376Z,26.50
2023-04-10T00:22:26.541Z,25.70
2023-04-10T00:24:53.414Z,27.40
2023-04-10T00:27:20.085Z,25.90
2023-04-10T00:29:46.521Z,30.00
2023-04-10T00:32:13.122Z,26.40
2023-04-10T00:34:39.592Z,26.20
2023-04-10T00:37:06.317Z,28.30
2023-04-10T00:39:32.840Z,25.10
2023-04-10T00:41:59.656Z,28.90
2023-04-10T00:44:26.285Z,29.30
2023-04-10T00:46:52.731Z,35.70
2023-04-10T00:49:19.209Z,32.30
2023-04-10T00:51:45.665Z,32.00
2023-04-10T00:54:12.303Z,32.50
2023-04-10T00:56:39.499Z,34.10
2023-04-10T00:59:07.303Z,36.40
2023-04-10T01:01:34.105Z,34.50
2023-04-10T01:04:01.099Z,32.70
2023-04-10T01:06:50.025Z,34.60
2023-04-10T01:09:49.024Z,38.50
2023-04-10T01:12:51.682Z,41.00
2023-04-10T01:15:25.520Z,36.10
2023-04-10T01:18:11.676Z,36.80
2023-04-10T01:20:40.108Z,37.20
2023-04-10T01:23:24.562Z,32.10
2023-04-10T01:25:59.794Z,33.80
2023-04-10T01:28:51.491Z,33.30
2023-04-10T01:32:07.469Z,36.20
2023-04-10T01:34:45.022Z,36.50
2023-04-10T01:37:20.889Z,36.70
2023-04-10T01:39:52.508Z,35.40
2023-04-10T01:42:22.512Z,30.80
2023-04-10T01:44:51.431Z,33.70
2023-04-10T01:47:19.741Z,29.80
2023-04-10T01:49:49.777Z,28.50
2023-04-10T01:52:17.879Z,28.60
2023-04-10T01:54:48.406Z,30.20
2023-04-10T01:57:16.754Z,26.40
2023-04-10T01:59:44.477Z,30.20
2023-04-10T02:02:12.182Z,31.40
2023-04-10T02:04:39.514Z,26.90
2023-04-10T02:07:20.020Z,26.30
2023-04-10T02:12:53.617Z,26.00
2023-04-10T02:15:23.532Z,25.40
2023-04-10T02:17:52.375Z,22.90
2023-04-10T02:20:19.491Z,21.20
2023-04-10T02:22:47.171Z,23.50
2023-04-10T02:25:14.852Z,25.80
2023-04-10T02:27:42.303Z,26.20
2023-04-10T02:30:09.235Z,26.70
2023-04-10T02:32:37.113Z,27.00
2023-04-10T02:35:04.051Z,28.40
2023-04-10T02:37:31.311Z,25.90
2023-04-10T02:39:57.901Z,28.90
2023-04-10T02:42:24.323Z,28.70
2023-04-10T02:44:50.768Z,27.00
2023-04-10T02:47:18.665Z,28.10
2023-04-10T02:49:45.299Z,25.40
2023-04-10T02:52:11.697Z,29.30
2023-04-10T02:54:38.219Z,28.30
2023-04-10T02:57:04.856Z,30.40
2023-04-10T02:59:31.636Z,29.70
2023-04-10T03:01:58.381Z,27.00
2023-04-10T03:04:25.090Z,25.10
2023-04-10T03:06:51.666Z,26.20
2023-04-10T03:09:18.068Z,24.40
2023-04-10T03:11:44.557Z,26.50
2023-04-10T03:14:10.993Z,24.90
2023-04-10T03:16:37.883Z,24.80
2023-04-10T03:19:04.587Z,29.30
2023-04-10T03:21:31.101Z,25.50
2023-04-10T03:23:57.522Z,24.20
2023-04-10T03:26:24.220Z,27.90
2023-04-10T03:28:51.235Z,28.10
2023-04-10T03:31:17.977Z,29.90
2023-04-10T03:33:44.612Z,28.00
2023-04-10T03:36:11.651Z,25.00
2023-04-10T03:38:38.253Z,22.00
2023-04-10T03:41:05.017Z,27.80
2023-04-10T03:43:31.576Z,29.00
2023-04-10T03:45:58.231Z,30.40
2023-04-10T03:48:28.180Z,27.50
2023-04-10T03:50:55.468Z,25.20
2023-04-10T03:53:21.998Z,25.90
2023-04-10T03:55:48.413Z,23.90
2023-04-10T03:58:15.126Z,24.40
2023-04-10T04:00:41.753Z,24.30
2023-04-10T04:03:08.700Z,26.10
2023-04-10T04:05:35.281Z,23.60
2023-04-10T04:08:01.681Z,26.80
2023-04-10T04:10:28.169Z,23.50
2023-04-10T04:12:54.808Z,23.20
2023-04-10T04:15:23.736Z,22.70
2023-04-10T04:17:50.514Z,24.20
2023-04-10T04:20:17.025Z,21.40
2023-04-10T04:22:43.446Z,22.60
2023-04-10T04:25:14.031Z,23.10
2023-04-10T04:27:40.451Z,20.00
2023-04-10T04:30:08.713Z,23.40
2023-04-10T04:32:35.312Z,24.60
2023-04-10T04:35:01.799Z,25.40
2023-04-10T04:37:28.294Z,23.00
2023-04-10T04:40:01.645Z,24.90
2023-04-10T04:42:28.065Z,24.70
2023-04-10T04:44:54.486Z,20.30
2023-04-10T04:47:20.906Z,21.90
2023-04-10T04:49:47.414Z,20.30
2023-04-10T04:52:32.337Z,24.80
2023-04-10T04:54:58.919Z,24.10
2023-04-10T04:57:25.314Z,24.10
2023-04-10T04:59:51.834Z,21.40
2023-04-10T05:02:23.770Z,20.50
2023-04-10T05:04:50.289Z,20.90
2023-04-10T05:07:16.714Z,20.40
2023-04-10T05:09:43.289Z,21.10
2023-04-10T05:12:09.727Z,21.30
2023-04-10T05:14:36.122Z,23.50
2023-04-10T05:17:11.288Z,22.60
2023-04-10T05:19:37.685Z,22.10
2023-04-10T05:22:04.302Z,21.10
2023-04-10T05:24:30.868Z,18.90
2023-04-10T05:26:57.762Z,21.70
2023-04-10T05:29:35.450Z,19.00
2023-04-10T05:32:01.911Z,21.50
2023-04-10T05:34:28.366Z,18.10
2023-04-10T05:36:56.853Z,17.50
2023-04-10T05:39:24.776Z,20.50
2023-04-10T05:41:58.282Z,20.40
2023-04-10T05:44:24.774Z,20.00
2023-04-10T05:46:51.242Z,21.90
2023-04-10T05:49:17.676Z,20.30
2023-04-10T05:51:44.108Z,22.20
2023-04-10T05:54:20.478Z,23.20
2023-04-10T05:56:46.870Z,24.50
2023-04-10T05:59:13.386Z,22.80
2023-04-10T06:01:41.151Z,23.10
2023-04-10T06:04:08.357Z,26.50
2023-04-10T06:06:39.475Z,23.10
2023-04-10T06:09:05.933Z,20.80
2023-04-10T06:11:32.415Z,20.00
2023-04-10T06:13:58.820Z,23.30
2023-04-10T06:16:25.698Z,23.50
2023-04-10T06:18:52.961Z,22.80
2023-04-10T06:21:26.001Z,21.50
2023-04-10T06:23:52.668Z,19.80
2023-04-10T06:26:19.625Z,21.70
2023-04-10T06:28:46.777Z,21.60
2023-04-10T06:31:13.184Z,21.20
2023-04-10T06:33:50.321Z,20.60
2023-04-10T06:36:17.896Z,22.30
2023-04-10T06:38:44.300Z,20.60
2023-04-10T06:41:11.506Z,22.40
2023-04-10T06:43:39.550Z,23.20
2023-04-10T06:46:12.516Z,20.50
2023-04-10T06:48:38.881Z,22.50
2023-04-10T06:51:05.588Z,25.00
2023-04-10T06:53:32.022Z,25.30
2023-04-10T06:55:58.546Z,23.10
2023-04-10T06:58:33.740Z,27.60
2023-04-10T07:01:04.386Z,25.80
2023-04-10T07:03:32.560Z,25.30
2023-04-10T07:06:00.308Z,31.50
2023-04-10T07:08:26.699Z,25.40
2023-04-10T07:10:58.460Z,25.80
2023-04-10T07:13:25.590Z,23.20
2023-04-10T07:15:52.144Z,23.00
2023-04-10T07:18:18.596Z,21.80
2023-04-10T07:20:45.102Z,20.90
2023-04-10T07:23:22.754Z,21.80
2023-04-10T07:25:49.228Z,19.40
2023-04-10T07:28:15.765Z,18.80
2023-04-10T07:30:42.180Z,21.70
2023-04-10T07:33:08.803Z,20.80
2023-04-10T07:35:44.627Z,17.00
2023-04-10T07:38:13.049Z,19.40
2023-04-10T07:40:39.455Z,20.20
2023-04-10T07:43:06.072Z,18.30
2023-04-10T07:45:32.804Z,16.70
2023-04-10T07:48:08.597Z,20.00
2023-04-10T07:50:36.257Z,20.70
2023-04-10T07:53:07.707Z,18.30
2023-04-10T07:55:44.002Z,19.80
2023-04-10T07:58:17.930Z,16.90
2023-04-10T08:00:44.697Z,16.30
2023-04-10T08:03:13.221Z,18.00
2023-04-10T08:05:39.768Z,17.00
2023-04-10T08:08:06.318Z,14.20
2023-04-10T08:10:40.108Z,14.30
2023-04-10T08:13:06.678Z,15.80
2023-04-10T08:15:33.591Z,16.30
2023-04-10T08:18:00.228Z,15.40
2023-04-10T08:20:28.260Z,16.10
2023-04-10T08:23:12.957Z,15.80
2023-04-10T08:25:46.623Z,17.10
2023-04-10T08:28:13.056Z,16.50
2023-04-10T08:30:39.591Z,16.50
2023-04-10T08:33:11.337Z,16.60
2023-04-10T08:35:37.822Z,13.50
2023-04-10T08:38:13.222Z,18.30
2023-04-10T08:40:40.493Z,12.60
2023-04-10T08:43:18.911Z,14.90
2023-04-10T08:45:45.958Z,14.30
2023-04-10T08:48:16.188Z,13.20
2023-04-10T08:50:46.138Z,13.30
2023-04-10T08:53:31.400Z,13.00
2023-04-10T08:56:03.120Z,14.90
2023-04-10T08:58:31.045Z,13.60
2023-04-10T09:00:58.440Z,13.90
2023-04-10T09:03:48.254Z,16.30
2023-04-10T09:06:14.643Z,13.30
2023-04-10T09:08:41.028Z,13.40
2023-04-10T09:11:07.698Z,13.40
2023-04-10T09:13:45.020Z,14.00
2023-04-10T09:16:15.028Z,14.70
2023-04-10T09:18:48.610Z,13.60
2023-04-10T09:21:18.558Z,12.60
2023-04-10T09:24:01.031Z,13.00
2023-04-10T09:26:33.499Z,13.60
2023-04-10T09:29:04.823Z,12.90
2023-04-10T09:31:50.738Z,11.40
2023-04-10T09:34:22.736Z,9.40
2023-04-10T09:37:03.667Z,8.70
2023-04-10T09:39:48.789Z,9.90
2023-04-10T09:42:15.448Z,10.10
2023-04-10T09:44:42.974Z,10.00
2023-04-10T09:47:33.339Z,10.10
2023-04-10T09:50:01.381Z,9.40
2023-04-10T09:52:35.218Z,10.40
2023-04-10T09:55:32.348Z,12.00
2023-04-10T09:57:59.180Z,10.20
2023-04-10T10:00:26.670Z,9.60
2023-04-10T10:02:56.900Z,9.60
2023-04-10T10:05:33.084Z,10.40
2023-04-10T10:07:59.589Z,11.90
2023-04-10T10:10:26.190Z,9.00
2023-04-10T10:12:59.401Z,8.50
2023-04-10T10:16:15.600Z,8.70
2023-04-10T10:19:16.703Z,9.20
2023-04-10T10:21:45.247Z,8.90
2023-04-10T10:24:13.020Z,9.00
2023-04-10T10:26:40.616Z,10.60
2023-04-10T10:29:18.842Z,9.00
2023-04-10T10:31:47.897Z,13.70
2023-04-10T10:34:16.662Z,9.70
2023-04-10T10:36:43.289Z,9.10
2023-04-10T10:39:45.726Z,9.70
2023-04-10T10:42:50.487Z,9.40
2023-04-10T10:45:23.445Z,10.70
2023-04-10T10:47:55.281Z,9.80
2023-04-10T10:50:38.853Z,10.40
2023-04-10T10:53:05.571Z,9.80
2023-04-10T10:55:35.119Z,8.80
2023-04-10T10:58:05.374Z,9.40
2023-04-10T11:00:50.233Z,8.90
2023-04-10T11:03:16.716Z,9.00
2023-04-10T11:05:59.618Z,8.30
2023-04-10T11:08:44.504Z,9.10
2023-04-10T11:11:17.641Z,8.90
2023-04-10T11:13:53.161Z,9.60
2023-04-10T11:16:35.070Z,11.30
2023-04-10T11:19:15.448Z,9.30
2023-04-10T11:22:15.308Z,8.70
2023-04-10T11:25:00.173Z,10.40
2023-04-10T11:27:52.749Z,9.50
2023-04-10T11:30:35.013Z,9.30
2023-04-10T11:33:04.134Z,9.00
2023-04-10T11:35:41.077Z,8.40
2023-04-10T11:38:17.607Z,8.00
2023-04-10T11:40:59.346Z,8.40
2023-04-10T11:43:35.851Z,10.50
2023-04-10T11:46:08.634Z,9.20
2023-04-10T11:48:36.790Z,9.80
2023-04-10T11:51:32.213Z,9.30
2023-04-10T11:54:11.838Z,9.00
2023-04-10T11:56:41.381Z,7.80
2023-04-10T11:59:20.095Z,7.60
2023-04-10T12:01:47.421Z,7.80
2023-04-10T12:04:19.664Z,8.60
2023-04-10T12:06:57.569Z,7.60
2023-04-10T12:09:30.736Z,6.80
2023-04-10T12:12:03.377Z,8.40
2023-04-10T12:14:34.796Z,7.60
2023-04-10T12:17:03.498Z,8.60
2023-04-10T12:19:40.594Z,7.50
2023-04-10T12:22:07.670Z,6.90
2023-04-10T12:24:52.530Z,6.70
2023-04-10T12:27:31.161Z,7.90
2023-04-10T12:29:58.987Z,7.20
2023-04-10T12:32:27.424Z,7.40
2023-04-10T12:34:58.689Z,8.40
2023-04-10T12:37:47.329Z,7.10
2023-04-10T12:40:14.333Z,7.30
2023-04-10T12:42:44.508Z,5.60
2023-04-10T12:45:14.060Z,7.60
2023-04-10T12:47:54.417Z,6.90
2023-04-10T12:50:21.081Z,5.90
2023-04-10T12:53:04.000Z,7.60
2023-04-10T12:55:37.431Z,7.40
2023-04-10T12:58:20.768Z,7.10
2023-04-10T13:00:48.503Z,6.30
2023-04-10T13:03:14.971Z,6.30
2023-04-10T13:05:47.763Z,6.30
2023-04-10T13:08:14.894Z,7.40
2023-04-10T13:10:42.228Z,7.20
2023-04-10T13:13:08.687Z,6.10
2023-04-10T13:15:35.190Z,5.30
2023-04-10T13:18:27.980Z,7.80
2023-04-10T13:20:54.433Z,7.50
2023-04-10T13:23:20.858Z,8.00
2023-04-10T13:25:47.559Z,8.40
2023-04-10T13:28:22.958Z,8.40
2023-04-10T13:30:49.366Z,8.80
2023-04-10T13:33:15.979Z,9.10
2023-04-10T13:35:42.481Z,6.80
2023-04-10T13:38:11.496Z,7.20
2023-04-10T13:40:47.023Z,7.70
2023-04-10T13:43:13.873Z,6.40
2023-04-10T13:45:41.376Z,8.00
2023-04-10T13:48:07.912Z,7.60
2023-04-10T13:50:34.580Z,6.40
2023-04-10T13:53:10.194Z,6.30
2023-04-10T13:55:38.028Z,4.50
2023-04-10T13:58:04.656Z,6.60
2023-04-10T14:00:31.036Z,6.20
2023-04-10T14:02:57.602Z,7.20
2023-04-10T14:05:33.115Z,7.90
2023-04-10T14:07:59.535Z,5.90
2023-04-10T14:10:26.999Z,5.70
2023-04-10T14:12:53.400Z,7.00
2023-04-10T14:15:19.830Z,8.30
2023-04-10T14:17:53.985Z,8.20
2023-04-10T14:20:20.529Z,7.20
2023-04-10T14:22:47.931Z,7.00
2023-04-10T14:25:15.850Z,6.60
2023-04-10T14:27:43.397Z,7.70
2023-04-10T14:30:19.041Z,6.90
2023-04-10T14:32:45.554Z,7.00
2023-04-10T14:35:12.142Z,6.20
2023-04-10T14:37:38.723Z,6.00
2023-04-10T14:40:06.644Z,7.30
2023-04-10T14:42:42.494Z,7.00
2023-04-10T14:45:09.870Z,6.90
2023-04-10T14:47:36.691Z,5.70
2023-04-10T14:50:03.508Z,7.60
2023-04-10T14:52:29.874Z,6.00
2023-04-10T14:55:05.952Z,6.90
2023-04-10T14:57:32.621Z,6.60
2023-04-10T15:00:01.254Z,6.50
2023-04-10T15:02:28.178Z,6.70
2023-04-10T15:04:54.649Z,6.30
2023-04-10T15:07:30.063Z,5.50
2023-04-10T15:09:57.905Z,5.00
2023-04-10T15:12:25.246Z,5.90
2023-04-10T15:14:52.162Z,5.80
2023-04-10T15:17:34.488Z,6.20
2023-04-10T15:20:01.182Z,6.30
2023-04-10T15:22:29.220Z,5.40
2023-04-10T15:24:56.338Z,7.00
2023-04-10T15:27:22.702Z,6.20
2023-04-10T15:29:56.597Z,7.00
2023-04-10T15:32:23.137Z,6.30
2023-04-10T15:34:49.751Z,8.30
2023-04-10T15:37:16.213Z,6.80
2023-04-10T15:39:42.673Z,7.80
2023-04-10T15:42:23.719Z,7.50
2023-04-10T15:44:50.190Z,9.10
2023-04-10T15:47:16.825Z,8.00
2023-04-10T15:49:43.281Z,7.20
2023-04-10T15:52:09.685Z,6.30
2023-04-10T15:54:45.480Z,7.50
2023-04-10T15:57:11.827Z,6.70
2023-04-10T15:59:38.342Z,7.10
2023-04-10T16:02:04.877Z,8.00
2023-04-10T16:04:31.719Z,6.90
2023-04-10T16:07:10.231Z,10.60
2023-04-10T16:09:36.621Z,7.50
2023-04-10T16:12:03.542Z,7.20
2023-04-10T16:14:30.067Z,7.10
2023-04-10T16:16:56.450Z,8.40
2023-04-10T16:19:32.302Z,8.40
2023-04-10T16:21:58.807Z,8.40
2023-04-10T16:24:25.356Z,6.90
2023-04-10T16:26:53.991Z,7.80
2023-04-10T16:29:20.429Z,6.40
2023-04-10T16:31:55.632Z,7.00
2023-04-10T16:34:22.184Z,6.70
2023-04-10T16:36:48.570Z,7.50
2023-04-10T16:39:15.016Z,7.70
2023-04-10T16:41:41.437Z,10.50
2023-04-10T16:44:28.475Z,9.30
2023-04-10T16:46:55.135Z,7.90
2023-04-10T16:49:22.454Z,8.50
2023-04-10T16:51:49.388Z,8.70
2023-04-10T16:54:36.153Z,8.00
2023-04-10T16:57:03.524Z,8.70
2023-04-10T16:59:29.882Z,6.70
2023-04-10T17:01:56.340Z,9.40
2023-04-10T17:04:34.792Z,8.60
2023-04-10T17:07:01.360Z,7.70
2023-04-10T17:09:27.702Z,6.20
2023-04-10T17:11:54.206Z,7.60
2023-04-10T17:14:20.788Z,9.20
2023-04-10T17:16:57.702Z,7.20
2023-04-10T17:19:24.047Z,6.60
2023-04-10T17:21:52.217Z,6.10
2023-04-10T17:24:18.580Z,7.20
2023-04-10T17:26:45.003Z,7.70
2023-04-10T17:29:11.405Z,7.60
2023-04-10T17:31:37.858Z,7.90
2023-04-10T17:34:04.264Z,8.50
2023-04-10T17:36:32.160Z,7.00
2023-04-10T17:39:00.523Z,9.60
2023-04-10T17:41:27.295Z,9.20
2023-04-10T17:43:53.745Z,9.90
2023-04-10T17:46:20.250Z,11.50
2023-04-10T17:48:46.723Z,13.00
2023-04-10T17:51:13.406Z,12.40
2023-04-10T17:53:39.903Z,13.10
2023-04-10T17:56:07.441Z,13.50
2023-04-10T17:58:33.874Z,12.80
2023-04-10T18:01:00.319Z,14.30
2023-04-10T18:03:26.943Z,11.60
2023-04-10T18:05:53.474Z,31.00
2023-04-10T18:08:19.880Z,31.90
2023-04-10T18:10:46.329Z,38.50
2023-04-10T18:13:12.750Z,22.00
2023-04-10T18:15:39.173Z,22.80
2023-04-10T18:18:05.745Z,20.80
2023-04-10T18:20:32.145Z,20.60
2023-04-10T18:22:58.626Z,18.60
2023-04-10T18:25:25.227Z,15.30
2023-04-10T18:28:12.489Z,16.20
2023-04-10T18:30:39.378Z,15.50
2023-04-10T18:33:09.916Z,19.70
2023-04-10T18:35:37.852Z,24.80
2023-04-10T18:38:04.314Z,26.80
2023-04-10T18:40:30.929Z,30.80
2023-04-10T18:42:58.523Z,34.80
2023-04-10T18:45:25.196Z,38.10
2023-04-10T18:47:51.641Z,45.20
2023-04-10T18:50:18.086Z,50.10
2023-04-10T18:52:44.610Z,46.80
2023-04-10T18:55:11.110Z,49.30
2023-04-10T18:57:37.640Z,70.40
2023-04-10T19:00:06.797Z,65.80
2023-04-10T19:02:33.317Z,40.50
2023-04-10T19:05:00.219Z,30.30
2023-04-10T19:07:26.621Z,27.50
2023-04-10T19:09:53.090Z,25.50
2023-04-10T19:12:19.455Z,18.80
2023-04-10T19:14:46.080Z,21.80
2023-04-10T19:17:12.510Z,21.70
2023-04-10T19:19:38.895Z,30.80
2023-04-10T19:22:05.430Z,28.70
2023-04-10T19:24:33.313Z,49.10
2023-04-10T19:27:00.712Z,44.30
2023-04-10T19:29:27.151Z,42.80
2023-04-10T19:31:53.528Z,54.10
2023-04-10T19:34:19.982Z,68.30
2023-04-10T19:36:46.674Z,54.50
2023-04-10T19:39:13.039Z,68.40
2023-04-10T19:41:42.165Z,47.20
2023-04-10T19:44:08.842Z,30.10
2023-04-10T19:46:35.378Z,41.30
2023-04-10T19:49:02.214Z,30.20
2023-04-10T19:51:28.593Z,36.00
2023-04-10T19:53:58.616Z,66.40
2023-04-10T19:56:27.735Z,80.90
2023-04-10T19:58:54.199Z,52.90
2023-04-10T20:01:20.940Z,62.60
2023-04-10T20:03:47.501Z,55.80
2023-04-10T20:06:14.184Z,48.10
2023-04-10T20:08:40.950Z,37.70
2023-04-10T20:11:07.435Z,33.40
2023-04-10T20:13:34.857Z,40.00
2023-04-10T20:16:02.077Z,37.00
2023-04-10T20:18:28.587Z,25.50
2023-04-10T20:20:55.088Z,25.60
2023-04-10T20:23:21.493Z,25.70
2023-04-10T20:25:47.915Z,27.20
2023-04-10T20:28:16.308Z,24.00
2023-04-10T20:30:43.912Z,22.90
2023-04-10T20:33:11.061Z,22.90
2023-04-10T20:35:38.035Z,28.50
2023-04-10T20:38:04.633Z,27.90
2023-04-10T20:40:31.031Z,29.10
2023-04-10T20:42:57.386Z,29.00
2023-04-10T20:45:23.920Z,26.00
2023-04-10T20:47:50.390Z,28.90
2023-04-10T20:50:17.033Z,28.50
2023-04-10T20:52:43.442Z,30.50
2023-04-10T20:55:10.655Z,30.50
2023-04-10T20:57:37.078Z,29.40
2023-04-10T21:00:03.958Z,29.70
2023-04-10T21:02:30.553Z,37.30
2023-04-10T21:04:57.054Z,44.60
2023-04-10T21:07:23.555Z,48.10
2023-04-10T21:09:50.163Z,55.30
2023-04-10T21:12:16.586Z,64.50
2023-04-10T21:14:43.033Z,63.50
2023-04-10T21:17:09.550Z,66.30
2023-04-10T21:19:35.972Z,62.00
2023-04-10T21:22:02.415Z,72.90
2023-04-10T21:24:28.913Z,66.00
2023-04-10T21:26:55.377Z,75.00
2023-04-10T21:29:21.776Z,67.80
2023-04-10T21:31:49.383Z,76.70
2023-04-10T21:34:17.047Z,75.20
2023-04-10T21:36:43.500Z,80.50
2023-04-10T21:39:10.015Z,81.10
2023-04-10T21:41:38.212Z,78.80
2023-04-10T21:44:06.317Z,73.90
2023-04-10T21:46:33.815Z,71.80
2023-04-10T21:49:00.431Z,62.70
2023-04-10T21:51:27.786Z,67.20
2023-04-10T21:53:54.369Z,79.10
2023-04-10T21:56:20.931Z,78.80
2023-04-10T21:58:47.436Z,80.10
2023-04-10T22:01:13.924Z,74.30
2023-04-10T22:03:40.627Z,73.20
2023-04-10T22:06:08.892Z,76.60
2023-04-10T22:08:38.251Z,77.60
2023-04-10T22:11:05.925Z,74.80
2023-04-10T22:13:32.596Z,84.80
2023-04-10T22:16:02.202Z,74.70
2023-04-10T22:18:29.070Z,74.90
2023-04-10T22:20:55.539Z,69.70
2023-04-10T22:23:22.400Z,74.40
2023-04-10T22:25:48.795Z,77.30
2023-04-10T22:28:15.308Z,74.20
2023-04-10T22:30:41.715Z,70.40
2023-04-10T22:33:08.320Z,74.90
2023-04-10T22:35:34.826Z,69.80
2023-04-10T22:38:03.813Z,68.10
2023-04-10T22:40:30.400Z,55.10
2023-04-10T22:42:56.854Z,56.80
2023-04-10T22:45:23.291Z,58.30
2023-04-10T22:47:49.749Z,55.20
2023-04-10T22:50:16.162Z,53.50
2023-04-10T22:52:42.688Z,57.80
2023-04-10T22:55:09.527Z,52.10
2023-04-10T22:57:35.918Z,57.30
2023-04-10T23:00:02.481Z,43.70
2023-04-10T23:02:31.374Z,55.00
2023-04-10T23:04:58.109Z,47.10
2023-04-10T23:07:26.135Z,50.70
2023-04-10T23:09:52.502Z,36.90
2023-04-10T23:12:18.998Z,42.60
2023-04-10T23:14:45.419Z,32.20
2023-04-10T23:17:11.789Z,33.80
2023-04-10T23:19:38.263Z,28.20
2023-04-10T23:22:05.365Z,32.50
2023-04-10T23:24:31.881Z,28.20
2023-04-10T23:26:58.320Z,31.80
2023-04-10T23:29:24.814Z,37.80
2023-04-10T23:31:51.218Z,54.10
2023-04-10T23:34:18.742Z,61.70
2023-04-10T23:36:45.308Z,67.90
2023-04-10T23:39:12.571Z,69.40
2023-04-10T23:41:39.078Z,69.90
2023-04-10T23:44:05.587Z,62.00
2023-04-10T23:46:32.111Z,60.40
2023-04-10T23:48:58.640Z,58.20
2023-04-10T23:51:26.661Z,59.70
2023-04-10T23:53:53.419Z,61.40
2023-04-10T23:56:21.134Z,60.00
2023-04-10T23:58:47.518Z,59.10
